Daisenzanmaru — JD2321 — position and weather

sailwx.info

Track history (hours):
 
Tides and Currents Weather Stations Pressure Air Temp Water Temp Dewpoint Dewpoint Depression Visibility Wind Speed Wind Dir Waves Ship Positions

Daisenzanmaru

Last reported at 2018-Jul-16 15:55 UTC. Time now 2018-Jul-17 11:29 UTC.
Position N 35°28' E 139°50'.

Length 72 m.

Type: Ship. MMSI: 431402064.

Date/timePositionNaut miles runAvg speedWind from/ knotsBaromVisibWave heightAir tempDewpointWater temp
2018-Jul-16 15:55N 35°28' E 139°50'612.4
2018-Jul-16 15:28N 35°24' E 139°46'511.7
2018-Jul-16 15:00N 35°18' E 139°45'611.8
2018-Jul-16 14:29N 35°12' E 139°47'612.7
2018-Jul-16 14:00N 35°07' E 139°44'24310.7
2018-Jul-15 15:17N 34°01' E 135°01'313.0
2018-Jul-15 15:00N 34°05' E 135°00'812.0
2018-Jul-15 14:19N 34°13' E 134°59'411.8
2018-Jul-15 14:01N 34°16' E 134°59'5 9.1
2018-Jul-15 13:30N 34°21' E 134°59'511.0
2018-Jul-15 13:01N 34°26' E 135°01'710.5
2018-Jul-15 12:20N 34°33' E 135°02'3 7.3
2018-Jul-15 11:54N 34°36' E 135°02'1 0.0
2018-Jul-14 02:17N 34°36' E 135°03'412.9
2018-Jul-14 01:58N 34°36' E 135°08'12 6.7
2018-Jul-14 00:06N 34°37' E 135°23'1 4.4
2018-Jul-13 23:57N 34°37' E 135°23'612.6
2018-Jul-13 23:30N 34°32' E 135°18'612.6
2018-Jul-13 22:59N 34°28' E 135°13'612.6
2018-Jul-13 22:30N 34°23' E 135°08'713.1
2018-Jul-13 22:00N 34°17' E 135°04'713.3
2018-Jul-13 21:30N 34°11' E 135°03'8 0.2
2018-Jul-12 03:43N 34°03' E 134°60'313.0
2018-Jul-12 03:27N 34°07' E 134°59'814.3
2018-Jul-12 02:56N 34°14' E 134°58'614.5
2018-Jul-12 02:30N 34°20' E 134°59'  
Track history (hours):
 
Tides and Currents Weather Stations Pressure Air Temp Water Temp Dewpoint Dewpoint Depression Visibility Wind Speed Wind Dir Waves Ship Positions

Daisenzanmaru

Last reported at 2018-Jul-16 15:55 UTC. Time now 2018-Jul-17 11:29 UTC.
Position N 35°28' E 139°50'.

Length 72 m.

Type: Ship. MMSI: 431402064.

Date/timePositionNaut miles runAvg speedWind from/ knotsBaromVisibWave heightAir tempDewpointWater temp
2018-Jul-16 15:55N 35°28' E 139°50'612.4
2018-Jul-16 15:28N 35°24' E 139°46'511.7
2018-Jul-16 15:00N 35°18' E 139°45'611.8
2018-Jul-16 14:29N 35°12' E 139°47'612.7
2018-Jul-16 14:00N 35°07' E 139°44'24310.7
2018-Jul-15 15:17N 34°01' E 135°01'313.0
2018-Jul-15 15:00N 34°05' E 135°00'812.0
2018-Jul-15 14:19N 34°13' E 134°59'411.8
2018-Jul-15 14:01N 34°16' E 134°59'5 9.1
2018-Jul-15 13:30N 34°21' E 134°59'511.0
2018-Jul-15 13:01N 34°26' E 135°01'710.5
2018-Jul-15 12:20N 34°33' E 135°02'3 7.3
2018-Jul-15 11:54N 34°36' E 135°02'1 0.0
2018-Jul-14 02:17N 34°36' E 135°03'412.9
2018-Jul-14 01:58N 34°36' E 135°08'12 6.7
2018-Jul-14 00:06N 34°37' E 135°23'1 4.4
2018-Jul-13 23:57N 34°37' E 135°23'612.6
2018-Jul-13 23:30N 34°32' E 135°18'612.6
2018-Jul-13 22:59N 34°28' E 135°13'612.6
2018-Jul-13 22:30N 34°23' E 135°08'713.1
2018-Jul-13 22:00N 34°17' E 135°04'713.3
2018-Jul-13 21:30N 34°11' E 135°03'8 0.2
2018-Jul-12 03:43N 34°03' E 134°60'313.0
2018-Jul-12 03:27N 34°07' E 134°59'814.3
2018-Jul-12 02:56N 34°14' E 134°58'614.5
2018-Jul-12 02:30N 34°20' E 134°59'  

Dump ship's entire track history